createdAt,value
2023-01-06T00:00:07.304Z,27.40
2023-01-06T00:01:07.304Z,27.80
2023-01-06T00:02:07.364Z,26.70
2023-01-06T00:03:07.247Z,26.10
2023-01-06T00:04:07.261Z,28.40
2023-01-06T00:05:07.233Z,27.90
2023-01-06T00:06:07.219Z,29.00
2023-01-06T00:07:07.211Z,28.20
2023-01-06T00:08:07.215Z,28.40
2023-01-06T00:09:07.188Z,27.70
2023-01-06T00:10:07.224Z,26.10
2023-01-06T00:11:07.302Z,26.40
2023-01-06T00:12:07.151Z,28.80
2023-01-06T00:13:07.143Z,27.60
2023-01-06T00:14:07.149Z,28.60
2023-01-06T00:15:07.117Z,28.00
2023-01-06T00:16:07.127Z,30.30
2023-01-06T00:17:07.112Z,28.80
2023-01-06T00:18:07.057Z,29.10
2023-01-06T00:19:07.052Z,28.40
2023-01-06T00:20:07.046Z,28.80
2023-01-06T00:21:07.033Z,28.10
2023-01-06T00:22:06.993Z,26.90
2023-01-06T00:23:06.984Z,30.00
2023-01-06T00:24:07.019Z,28.70
2023-01-06T00:25:06.979Z,30.00
2023-01-06T00:26:06.974Z,27.00
2023-01-06T00:27:06.945Z,28.90
2023-01-06T00:28:06.930Z,30.00
2023-01-06T00:29:06.920Z,28.80
2023-01-06T00:30:06.916Z,28.40
2023-01-06T00:31:06.990Z,29.80
2023-01-06T00:32:06.894Z,27.00
2023-01-06T00:33:06.882Z,28.30
2023-01-06T00:34:06.867Z,29.10
2023-01-06T00:35:06.853Z,27.00
2023-01-06T00:36:06.841Z,28.10
2023-01-06T00:37:06.838Z,27.70
2023-01-06T00:38:06.787Z,27.80
2023-01-06T00:39:06.782Z,29.30
2023-01-06T00:40:06.788Z,27.10
2023-01-06T00:41:06.748Z,28.10
2023-01-06T00:42:06.788Z,27.90
2023-01-06T00:43:06.769Z,29.30
2023-01-06T00:44:06.720Z,27.10
2023-01-06T00:45:06.729Z,29.20
2023-01-06T00:46:06.723Z,27.80
2023-01-06T00:47:06.729Z,27.80
2023-01-06T00:48:06.670Z,29.90
2023-01-06T00:49:07.750Z,29.80
2023-01-06T00:50:06.660Z,27.70
2023-01-06T00:51:06.622Z,28.50
2023-01-06T00:52:06.615Z,29.50
2023-01-06T00:53:06.640Z,29.00
2023-01-06T00:54:06.605Z,30.00
2023-01-06T00:55:06.634Z,29.70
2023-01-06T00:56:06.592Z,28.20
2023-01-06T00:57:06.574Z,26.80
2023-01-06T00:58:06.546Z,30.20
2023-01-06T00:59:06.546Z,27.60
2023-01-06T01:00:06.527Z,28.90
2023-01-06T01:01:06.589Z,28.00
2023-01-06T01:02:06.549Z,29.70
2023-01-06T01:03:06.501Z,28.20
2023-01-06T01:04:06.486Z,28.60
2023-01-06T01:05:06.475Z,31.00
2023-01-06T01:06:06.432Z,27.70
2023-01-06T01:07:06.437Z,29.70
2023-01-06T01:08:06.398Z,28.20
2023-01-06T01:09:06.400Z,29.50
2023-01-06T01:10:06.376Z,29.50
2023-01-06T01:11:06.390Z,27.30
2023-01-06T01:12:06.545Z,30.00
2023-01-06T01:13:06.345Z,28.90
2023-01-06T01:14:06.336Z,29.40
2023-01-06T01:15:06.306Z,30.20
2023-01-06T01:16:06.378Z,28.10
2023-01-06T01:17:06.290Z,30.90
2023-01-06T01:18:06.308Z,28.50
2023-01-06T01:19:06.276Z,27.00
2023-01-06T01:20:06.246Z,28.00
2023-01-06T01:21:06.251Z,29.00
2023-01-06T01:22:06.239Z,28.30
2023-01-06T01:23:06.209Z,29.70
2023-01-06T01:24:06.239Z,28.50
2023-01-06T01:25:06.203Z,29.20
2023-01-06T01:26:06.168Z,27.20
2023-01-06T01:27:06.169Z,29.00
2023-01-06T01:28:06.150Z,29.90
2023-01-06T01:29:06.199Z,29.70
2023-01-06T01:30:06.136Z,27.00
2023-01-06T01:31:06.134Z,28.30
2023-01-06T01:32:06.094Z,28.90
2023-01-06T01:33:06.102Z,27.30
2023-01-06T01:34:06.077Z,27.90
2023-01-06T01:35:06.118Z,29.90
2023-01-06T01:36:06.036Z,29.20
2023-01-06T01:37:06.031Z,28.20
2023-01-06T01:38:06.046Z,28.20
2023-01-06T01:39:06.033Z,29.80
2023-01-06T01:40:06.002Z,30.60
2023-01-06T01:41:06.037Z,27.90
2023-01-06T01:42:05.985Z,28.00
2023-01-06T01:43:05.982Z,27.80
2023-01-06T01:44:05.965Z,27.80
2023-01-06T01:45:05.995Z,28.20
2023-01-06T01:46:06.045Z,29.30
2023-01-06T01:47:05.903Z,29.50
2023-01-06T01:48:05.909Z,28.70
2023-01-06T01:49:05.892Z,29.10
2023-01-06T01:50:05.873Z,29.40
2023-01-06T01:51:05.862Z,30.40
2023-01-06T01:52:05.842Z,29.10
2023-01-06T01:53:05.839Z,29.70
2023-01-06T01:54:05.818Z,31.00
2023-01-06T01:55:05.790Z,29.60
2023-01-06T01:56:05.796Z,29.60
2023-01-06T01:57:05.767Z,29.20
2023-01-06T01:58:05.763Z,29.00
2023-01-06T01:59:05.777Z,29.50
2023-01-06T02:00:05.736Z,29.60
2023-01-06T02:01:05.827Z,30.80
2023-01-06T02:02:05.938Z,29.20
2023-01-06T02:03:05.763Z,27.90
2023-01-06T02:04:05.669Z,31.20
2023-01-06T02:05:05.676Z,29.90
2023-01-06T02:06:05.651Z,30.10
2023-01-06T02:07:05.647Z,28.30
2023-01-06T02:08:05.609Z,30.40
2023-01-06T02:09:05.672Z,28.00
2023-01-06T02:10:05.587Z,29.30
2023-01-06T02:11:05.595Z,29.10
2023-01-06T02:12:05.575Z,30.00
2023-01-06T02:13:05.583Z,30.20
2023-01-06T02:14:05.524Z,28.90
2023-01-06T02:15:05.544Z,29.50
2023-01-06T02:16:05.586Z,31.20
2023-01-06T02:17:05.526Z,29.50
2023-01-06T02:18:05.484Z,27.10
2023-01-06T02:19:05.515Z,27.50
2023-01-06T02:20:05.483Z,26.90
2023-01-06T02:21:05.470Z,29.20
2023-01-06T02:22:05.425Z,28.20
2023-01-06T02:23:05.457Z,28.80
2023-01-06T02:24:05.420Z,28.20
2023-01-06T02:25:05.421Z,29.20
2023-01-06T02:26:05.386Z,26.50
2023-01-06T02:27:05.388Z,26.70
2023-01-06T02:28:05.348Z,26.70
2023-01-06T02:29:05.355Z,27.90
2023-01-06T02:30:05.333Z,30.60
2023-01-06T02:31:05.341Z,27.10
2023-01-06T02:32:05.300Z,29.20
2023-01-06T02:33:05.325Z,28.60
2023-01-06T02:34:05.310Z,26.70
2023-01-06T02:35:05.257Z,27.80
2023-01-06T02:36:05.255Z,27.80
2023-01-06T02:37:05.280Z,28.80
2023-01-06T02:38:05.250Z,29.40
2023-01-06T02:39:05.269Z,27.70
2023-01-06T02:40:05.188Z,28.90
2023-01-06T02:41:05.236Z,27.40
2023-01-06T02:42:05.191Z,27.40
2023-01-06T02:43:05.174Z,26.90
2023-01-06T02:44:05.139Z,27.60
2023-01-06T02:45:05.161Z,26.00
2023-01-06T02:46:05.131Z,28.30
2023-01-06T02:47:05.112Z,28.90
2023-01-06T02:48:05.091Z,29.60
2023-01-06T02:49:05.104Z,29.00
2023-01-06T02:50:05.076Z,31.10
2023-01-06T02:51:05.098Z,28.30
2023-01-06T02:52:05.054Z,26.70
2023-01-06T02:53:05.036Z,26.70
2023-01-06T02:54:05.010Z,28.30
2023-01-06T02:55:05.005Z,27.60
2023-01-06T02:56:05.013Z,27.40
2023-01-06T02:57:05.011Z,28.00
2023-01-06T02:58:05.058Z,29.90
2023-01-06T02:59:04.977Z,27.80
2023-01-06T03:00:04.919Z,27.00
2023-01-06T03:01:04.976Z,26.70
2023-01-06T03:02:05.030Z,27.30
2023-01-06T03:03:04.933Z,27.90
2023-01-06T03:04:04.881Z,27.20
2023-01-06T03:05:04.896Z,27.70
2023-01-06T03:06:04.862Z,28.50
2023-01-06T03:07:04.871Z,26.50
2023-01-06T03:08:04.843Z,28.90
2023-01-06T03:09:04.841Z,28.20
2023-01-06T03:10:04.808Z,26.70
2023-01-06T03:11:04.811Z,28.90
2023-01-06T03:12:04.796Z,28.10
2023-01-06T03:13:04.786Z,26.00
2023-01-06T03:14:04.774Z,28.60
2023-01-06T03:15:04.812Z,28.10
2023-01-06T03:16:04.815Z,25.80
2023-01-06T03:17:04.754Z,26.80
2023-01-06T03:18:04.721Z,27.50
2023-01-06T03:19:04.746Z,27.60
2023-01-06T03:20:04.686Z,31.00
2023-01-06T03:21:04.671Z,26.00
2023-01-06T03:22:04.654Z,28.50
2023-01-06T03:23:04.684Z,28.70
2023-01-06T03:24:04.618Z,29.30
2023-01-06T03:25:04.643Z,27.50
2023-01-06T03:26:04.607Z,26.20
2023-01-06T03:27:04.593Z,28.70
2023-01-06T03:28:04.588Z,27.90
2023-01-06T03:29:04.574Z,26.20
2023-01-06T03:30:04.554Z,25.60
2023-01-06T03:31:04.615Z,28.60
2023-01-06T03:32:04.538Z,27.90
2023-01-06T03:33:06.336Z,26.60
2023-01-06T03:34:04.520Z,26.90
2023-01-06T03:35:04.552Z,28.20
2023-01-06T03:36:04.474Z,31.60
2023-01-06T03:37:04.495Z,26.90
2023-01-06T03:38:04.480Z,27.70
2023-01-06T03:39:04.448Z,27.90
2023-01-06T03:40:04.425Z,27.00
2023-01-06T03:41:04.424Z,27.60
2023-01-06T03:42:04.417Z,27.20
2023-01-06T03:43:04.408Z,27.00
2023-01-06T03:44:04.346Z,26.00
2023-01-06T03:45:04.364Z,26.50
2023-01-06T03:46:04.363Z,26.90
2023-01-06T03:47:11.334Z,27.50
2023-01-06T03:48:04.315Z,26.00
2023-01-06T03:49:04.293Z,26.50
2023-01-06T03:50:04.292Z,28.10
2023-01-06T03:51:04.275Z,28.10
2023-01-06T03:52:04.250Z,27.60
2023-01-06T03:53:04.243Z,28.70
2023-01-06T03:54:04.232Z,30.40
2023-01-06T03:55:04.214Z,27.70
2023-01-06T03:56:04.205Z,28.70
2023-01-06T03:57:04.202Z,27.30
2023-01-06T03:58:04.163Z,26.40
2023-01-06T03:59:04.164Z,27.10
2023-01-06T04:00:04.146Z,28.00
2023-01-06T04:01:04.229Z,28.40
2023-01-06T04:02:04.113Z,26.30
2023-01-06T04:03:04.125Z,26.70
2023-01-06T04:04:04.158Z,26.70
2023-01-06T04:05:04.073Z,27.60
2023-01-06T04:06:04.076Z,28.80
2023-01-06T04:07:04.063Z,26.30
2023-01-06T04:08:04.055Z,27.30
2023-01-06T04:09:04.040Z,26.10
2023-01-06T04:10:04.027Z,28.00
2023-01-06T04:11:04.013Z,26.90
2023-01-06T04:12:04.034Z,26.20
2023-01-06T04:13:03.996Z,26.70
2023-01-06T04:14:03.976Z,28.30
2023-01-06T04:15:03.957Z,30.10
2023-01-06T04:16:03.999Z,26.40
2023-01-06T04:17:03.923Z,26.60
2023-01-06T04:18:03.933Z,26.60
2023-01-06T04:19:03.904Z,26.20
2023-01-06T04:20:03.893Z,27.50
2023-01-06T04:21:03.875Z,28.40
2023-01-06T04:22:03.864Z,26.80
2023-01-06T04:23:03.855Z,27.20
2023-01-06T04:24:03.853Z,26.10
2023-01-06T04:25:03.837Z,25.60
2023-01-06T04:26:03.826Z,26.30
2023-01-06T04:27:03.822Z,26.20
2023-01-06T04:28:03.849Z,28.60
2023-01-06T04:29:03.777Z,27.40
2023-01-06T04:30:03.780Z,27.20
2023-01-06T04:31:03.744Z,26.80
2023-01-06T04:32:03.737Z,26.80
2023-01-06T04:33:03.713Z,27.50
2023-01-06T04:34:03.741Z,28.90
2023-01-06T04:35:03.724Z,25.70
2023-01-06T04:36:03.698Z,27.20
2023-01-06T04:37:03.663Z,28.10
2023-01-06T04:38:03.664Z,27.20
2023-01-06T04:39:03.653Z,26.90
2023-01-06T04:40:03.660Z,27.20
2023-01-06T04:41:03.630Z,27.90
2023-01-06T04:42:03.613Z,25.80
2023-01-06T04:43:03.605Z,27.40
2023-01-06T04:44:03.599Z,25.60
2023-01-06T04:45:03.600Z,25.60
2023-01-06T04:46:03.584Z,27.60
2023-01-06T04:47:03.605Z,25.70
2023-01-06T04:48:03.547Z,26.80
2023-01-06T04:49:03.519Z,27.10
2023-01-06T04:50:03.519Z,26.10
2023-01-06T04:51:03.524Z,25.70
2023-01-06T04:52:03.491Z,28.30
2023-01-06T04:53:03.471Z,27.90
2023-01-06T04:54:03.462Z,28.70
2023-01-06T04:55:03.432Z,26.20
2023-01-06T04:56:03.447Z,26.80
2023-01-06T04:57:03.431Z,27.90
2023-01-06T04:58:03.416Z,27.50
2023-01-06T04:59:03.395Z,26.90
2023-01-06T05:00:03.385Z,27.20
2023-01-06T05:01:03.415Z,26.50
2023-01-06T05:02:03.471Z,26.50
2023-01-06T05:03:03.363Z,26.50
2023-01-06T05:04:03.376Z,25.00
2023-01-06T05:05:03.334Z,26.80
2023-01-06T05:06:03.324Z,26.70
2023-01-06T05:07:03.285Z,27.70
2023-01-06T05:08:03.284Z,26.00
2023-01-06T05:09:03.265Z,25.60
2023-01-06T05:10:03.266Z,25.50
2023-01-06T05:11:03.245Z,25.90
2023-01-06T05:12:03.235Z,26.80
2023-01-06T05:13:03.203Z,26.20
2023-01-06T05:14:03.203Z,26.70
2023-01-06T05:15:03.173Z,26.40
2023-01-06T05:16:03.239Z,26.90
2023-01-06T05:17:03.155Z,26.80
2023-01-06T05:18:03.157Z,26.60
2023-01-06T05:19:03.143Z,25.30
2023-01-06T05:20:03.140Z,25.40
2023-01-06T05:21:03.118Z,26.30
2023-01-06T05:22:03.105Z,26.20
2023-01-06T05:23:03.126Z,26.60
2023-01-06T05:24:03.098Z,27.40
2023-01-06T05:25:03.053Z,24.70
2023-01-06T05:26:03.060Z,25.60
2023-01-06T05:27:03.035Z,24.80
2023-01-06T05:28:03.039Z,26.80
2023-01-06T05:29:02.993Z,26.90
2023-01-06T05:30:03.079Z,25.10
2023-01-06T05:31:02.976Z,25.60
2023-01-06T05:32:02.985Z,25.10
2023-01-06T05:33:02.957Z,25.60
2023-01-06T05:34:02.943Z,25.50
2023-01-06T05:35:02.928Z,26.90
2023-01-06T05:36:02.947Z,25.40
2023-01-06T05:37:02.914Z,25.90
2023-01-06T05:38:02.925Z,26.10
2023-01-06T05:39:02.887Z,28.10
2023-01-06T05:40:02.884Z,28.80
2023-01-06T05:41:02.889Z,26.00
2023-01-06T05:42:02.879Z,26.50
2023-01-06T05:43:02.846Z,27.80
2023-01-06T05:44:02.826Z,26.40
2023-01-06T05:45:02.807Z,26.10
2023-01-06T05:46:02.867Z,27.20
2023-01-06T05:47:02.937Z,26.70
2023-01-06T05:48:02.793Z,26.90
2023-01-06T05:49:02.753Z,25.00
2023-01-06T05:50:02.746Z,26.20
2023-01-06T05:51:02.726Z,26.50
2023-01-06T05:52:02.752Z,26.00
2023-01-06T05:53:02.722Z,26.20
2023-01-06T05:54:02.695Z,26.60
2023-01-06T05:55:02.679Z,27.70
2023-01-06T05:56:02.664Z,26.40
2023-01-06T05:57:02.678Z,26.20
2023-01-06T05:58:02.660Z,27.40
2023-01-06T05:59:02.625Z,26.30
2023-01-06T06:00:02.633Z,25.80
2023-01-06T06:01:02.618Z,25.90
2023-01-06T06:02:02.708Z,27.00
2023-01-06T06:03:02.572Z,25.80
2023-01-06T06:04:02.641Z,26.70
2023-01-06T06:05:02.583Z,27.80
2023-01-06T06:06:02.541Z,26.80
2023-01-06T06:07:02.513Z,26.40
2023-01-06T06:08:02.513Z,26.10
2023-01-06T06:09:02.494Z,24.80
2023-01-06T06:10:02.503Z,25.60
2023-01-06T06:11:02.535Z,26.00
2023-01-06T06:12:02.471Z,27.70
2023-01-06T06:13:02.432Z,26.80
2023-01-06T06:14:02.459Z,26.80
2023-01-06T06:15:02.435Z,27.80
2023-01-06T06:16:02.424Z,25.30
2023-01-06T06:17:02.422Z,26.40
2023-01-06T06:18:02.406Z,25.70
2023-01-06T06:19:02.363Z,26.70
2023-01-06T06:20:02.363Z,24.90
2023-01-06T06:21:02.354Z,28.90
2023-01-06T06:22:02.344Z,25.50
2023-01-06T06:23:02.328Z,27.10
2023-01-06T06:24:02.303Z,27.40
2023-01-06T06:25:02.294Z,27.00
2023-01-06T06:26:02.284Z,25.10
2023-01-06T06:27:02.274Z,25.20
2023-01-06T06:28:02.269Z,27.20
2023-01-06T06:29:02.244Z,24.70
2023-01-06T06:30:02.227Z,27.80
2023-01-06T06:31:02.283Z,27.80
2023-01-06T06:32:02.222Z,26.70
2023-01-06T06:33:02.195Z,25.50
2023-01-06T06:34:02.189Z,25.10
2023-01-06T06:35:02.195Z,26.40
2023-01-06T06:36:02.157Z,28.10
2023-01-06T06:37:02.149Z,24.50
2023-01-06T06:38:02.197Z,25.50
2023-01-06T06:39:02.144Z,25.90
2023-01-06T06:40:02.116Z,28.00
2023-01-06T06:41:02.090Z,25.10
2023-01-06T06:42:02.100Z,27.30
2023-01-06T06:43:02.056Z,25.40
2023-01-06T06:44:02.047Z,26.50
2023-01-06T06:45:02.021Z,26.10
2023-01-06T06:46:02.050Z,28.90
2023-01-06T06:47:02.002Z,24.40
2023-01-06T06:48:02.041Z,24.70
2023-01-06T06:49:01.987Z,26.70
2023-01-06T06:50:01.984Z,26.20
2023-01-06T06:51:01.962Z,25.30
2023-01-06T06:52:01.967Z,26.70
2023-01-06T06:53:01.948Z,26.70
2023-01-06T06:54:01.932Z,28.10
2023-01-06T06:55:01.906Z,27.40
2023-01-06T06:56:01.924Z,25.70
2023-01-06T06:57:01.881Z,27.60
2023-01-06T06:58:01.873Z,26.50
2023-01-06T06:59:01.857Z,27.60
2023-01-06T07:00:01.867Z,25.20
2023-01-06T07:01:01.858Z,25.40
2023-01-06T07:02:01.929Z,27.00
2023-01-06T07:03:01.820Z,27.10
2023-01-06T07:04:01.800Z,25.70
2023-01-06T07:05:01.776Z,26.80
2023-01-06T07:06:01.774Z,26.50
2023-01-06T07:07:01.755Z,27.30
2023-01-06T07:08:01.765Z,26.80
2023-01-06T07:09:01.724Z,27.50
2023-01-06T07:10:01.725Z,27.70
2023-01-06T07:11:01.693Z,26.20
2023-01-06T07:12:01.681Z,27.40
2023-01-06T07:13:02.948Z,27.60
2023-01-06T07:14:01.662Z,27.30
2023-01-06T07:15:01.637Z,29.00
2023-01-06T07:16:01.666Z,27.50
2023-01-06T07:17:01.628Z,25.80
2023-01-06T07:18:01.624Z,26.80
2023-01-06T07:19:01.598Z,26.20
2023-01-06T07:20:01.596Z,27.90
2023-01-06T07:21:01.562Z,26.80
2023-01-06T07:22:01.568Z,27.60
2023-01-06T07:23:01.546Z,27.90
2023-01-06T07:24:01.533Z,27.70
2023-01-06T07:25:01.522Z,26.90
2023-01-06T07:26:01.501Z,26.20
2023-01-06T07:27:01.482Z,28.50
2023-01-06T07:28:01.484Z,26.80
2023-01-06T07:29:01.463Z,26.40
2023-01-06T07:30:01.453Z,28.10
2023-01-06T07:31:01.527Z,26.70
2023-01-06T07:32:01.435Z,26.80
2023-01-06T07:33:01.417Z,26.70
2023-01-06T07:34:01.418Z,27.70
2023-01-06T07:35:01.387Z,27.80
2023-01-06T07:36:01.396Z,26.20
2023-01-06T07:37:01.353Z,26.10
2023-01-06T07:38:01.363Z,26.70
2023-01-06T07:39:01.337Z,27.10
2023-01-06T07:40:01.333Z,28.90
2023-01-06T07:41:01.397Z,25.90
2023-01-06T07:42:01.321Z,27.30
2023-01-06T07:43:01.281Z,27.70
2023-01-06T07:44:01.273Z,27.80
2023-01-06T07:45:01.282Z,26.70
2023-01-06T07:46:01.311Z,25.30
2023-01-06T07:47:01.234Z,27.70
2023-01-06T07:48:01.249Z,27.20
2023-01-06T07:49:01.212Z,26.60
2023-01-06T07:50:01.213Z,26.20
2023-01-06T07:51:01.182Z,29.00
2023-01-06T07:52:01.171Z,25.80
2023-01-06T07:53:01.158Z,28.10
2023-01-06T07:54:01.151Z,26.80
2023-01-06T07:55:01.138Z,27.50
2023-01-06T07:56:01.112Z,26.30
2023-01-06T07:57:01.103Z,26.60
2023-01-06T07:58:01.103Z,25.90
2023-01-06T07:59:01.115Z,28.40
2023-01-06T08:00:01.089Z,27.90
2023-01-06T08:01:01.074Z,28.20
2023-01-06T08:02:01.183Z,28.80
2023-01-06T08:03:01.102Z,27.60
2023-01-06T08:04:01.030Z,28.00
2023-01-06T08:05:01.017Z,25.80
2023-01-06T08:06:01.015Z,27.20
2023-01-06T08:07:00.974Z,27.10
2023-01-06T08:08:00.975Z,27.70
2023-01-06T08:09:00.946Z,26.20
2023-01-06T08:10:00.949Z,26.30
2023-01-06T08:11:00.949Z,28.30
2023-01-06T08:12:00.914Z,28.00
2023-01-06T08:13:00.884Z,29.80
2023-01-06T08:14:00.890Z,25.90
2023-01-06T08:15:00.905Z,28.90
2023-01-06T08:16:00.945Z,28.10
2023-01-06T08:17:00.977Z,28.30
2023-01-06T08:18:00.911Z,27.70
2023-01-06T08:19:00.823Z,25.90
2023-01-06T08:20:00.890Z,25.90
2023-01-06T08:21:00.815Z,27.10
2023-01-06T08:22:00.787Z,25.90
2023-01-06T08:23:00.773Z,27.40
2023-01-06T08:24:00.779Z,27.70
2023-01-06T08:25:00.760Z,26.80
2023-01-06T08:26:00.720Z,26.80
2023-01-06T08:27:00.741Z,28.60
2023-01-06T08:28:00.708Z,26.00
2023-01-06T08:29:00.698Z,25.40
2023-01-06T08:30:00.671Z,27.70
2023-01-06T08:31:00.756Z,26.70
2023-01-06T08:32:09.882Z,26.00
2023-01-06T08:33:01.663Z,28.40
2023-01-06T08:34:00.637Z,26.20
2023-01-06T08:35:00.625Z,28.00
2023-01-06T08:36:00.603Z,26.60
2023-01-06T08:37:00.601Z,26.20
2023-01-06T08:38:00.576Z,27.40
2023-01-06T08:39:00.589Z,26.30
2023-01-06T08:40:00.565Z,27.80
2023-01-06T08:41:00.552Z,26.50
2023-01-06T08:42:00.531Z,26.90
2023-01-06T08:43:00.544Z,27.00
2023-01-06T08:44:00.506Z,27.70
2023-01-06T08:45:00.527Z,27.00
2023-01-06T08:46:00.549Z,26.30
2023-01-06T08:47:00.486Z,27.60
2023-01-06T08:48:00.455Z,26.50
2023-01-06T08:49:00.437Z,25.80
2023-01-06T08:50:00.423Z,26.10
2023-01-06T08:51:00.427Z,26.30
2023-01-06T08:52:00.421Z,25.50
2023-01-06T08:53:00.395Z,27.10
2023-01-06T08:54:00.392Z,27.30
2023-01-06T08:55:00.364Z,25.40
2023-01-06T08:56:00.351Z,25.90
2023-01-06T08:57:00.341Z,25.30
2023-01-06T08:58:00.301Z,26.70
2023-01-06T08:59:00.311Z,26.60
2023-01-06T09:00:00.299Z,25.70
2023-01-06T09:01:00.317Z,27.60
2023-01-06T09:02:00.423Z,28.10
2023-01-06T09:03:00.280Z,26.20
2023-01-06T09:04:00.244Z,26.60
2023-01-06T09:05:00.298Z,28.00
2023-01-06T09:06:00.209Z,27.50
2023-01-06T09:07:00.223Z,26.60
2023-01-06T09:08:00.192Z,25.70
2023-01-06T09:09:00.189Z,26.60
2023-01-06T09:10:00.196Z,25.60
2023-01-06T09:11:00.171Z,26.70
2023-01-06T09:12:00.133Z,26.80
2023-01-06T09:13:00.138Z,26.40
2023-01-06T09:14:00.116Z,26.50
2023-01-06T09:15:00.119Z,27.10
2023-01-06T09:16:00.120Z,26.10
2023-01-06T09:17:00.095Z,26.80
2023-01-06T09:18:00.111Z,26.40
2023-01-06T09:19:00.084Z,26.40
2023-01-06T09:20:00.046Z,28.40
2023-01-06T09:21:00.066Z,28.00
2023-01-06T09:22:01.076Z,25.70
2023-01-06T09:23:00.022Z,25.80
2023-01-06T09:23:59.972Z,26.30
2023-01-06T09:24:59.985Z,26.10
2023-01-06T09:25:59.987Z,25.90
2023-01-06T09:26:59.940Z,25.20
2023-01-06T09:27:59.932Z,26.20
2023-01-06T09:29:00.017Z,26.20
2023-01-06T09:29:59.902Z,25.60
2023-01-06T09:30:59.971Z,25.10
2023-01-06T09:31:59.961Z,26.60
2023-01-06T09:32:59.865Z,27.40
2023-01-06T09:33:59.842Z,25.60
2023-01-06T09:34:59.844Z,26.20
2023-01-06T09:35:59.811Z,27.00
2023-01-06T09:36:59.820Z,26.90
2023-01-06T09:37:59.781Z,27.40
2023-01-06T09:38:59.794Z,26.70
2023-01-06T09:39:59.761Z,26.60
2023-01-06T09:40:59.773Z,25.40
2023-01-06T09:41:59.752Z,26.30
2023-01-06T09:42:59.740Z,26.10
2023-01-06T09:43:59.736Z,24.90
2023-01-06T09:44:59.713Z,25.60
2023-01-06T09:45:59.694Z,25.50
2023-01-06T09:47:06.717Z,26.20
2023-01-06T09:47:59.660Z,25.00
2023-01-06T09:48:59.659Z,26.80
2023-01-06T09:50:02.322Z,27.50
2023-01-06T09:50:59.647Z,25.90
2023-01-06T09:51:59.654Z,27.50
2023-01-06T09:52:59.621Z,27.00
2023-01-06T09:53:59.593Z,25.60
2023-01-06T09:54:59.585Z,25.70
2023-01-06T09:55:59.574Z,27.10
2023-01-06T09:56:59.560Z,25.60
2023-01-06T09:57:59.590Z,26.30
2023-01-06T09:58:59.553Z,25.50
2023-01-06T09:59:59.511Z,25.50
2023-01-06T10:00:59.525Z,25.30
2023-01-06T10:01:59.675Z,26.20
2023-01-06T10:02:59.495Z,26.30
2023-01-06T10:03:59.568Z,25.60
2023-01-06T10:04:59.457Z,25.70
2023-01-06T10:05:59.485Z,25.30
2023-01-06T10:06:59.492Z,25.90
2023-01-06T10:07:59.410Z,25.30
2023-01-06T10:08:59.393Z,24.30
2023-01-06T10:09:59.384Z,24.20
2023-01-06T10:10:59.388Z,25.10
2023-01-06T10:11:59.370Z,24.30
2023-01-06T10:12:59.348Z,25.70
2023-01-06T10:13:59.344Z,25.40
2023-01-06T10:14:59.387Z,24.70
2023-01-06T10:15:59.341Z,24.40
2023-01-06T10:16:59.330Z,24.30
2023-01-06T10:17:59.299Z,24.30
2023-01-06T10:18:59.280Z,23.40
2023-01-06T10:19:59.276Z,23.70
2023-01-06T10:20:59.450Z,24.70
2023-01-06T10:21:59.248Z,25.00
2023-01-06T10:22:59.261Z,24.10
2023-01-06T10:23:59.216Z,23.90
2023-01-06T10:24:59.252Z,24.30
2023-01-06T10:25:59.230Z,24.10
2023-01-06T10:26:59.211Z,24.50
2023-01-06T10:27:59.214Z,23.90
2023-01-06T10:28:59.204Z,24.20
2023-01-06T10:29:59.120Z,24.30
2023-01-06T10:30:59.147Z,24.40
2023-01-06T10:31:59.116Z,24.50
2023-01-06T10:32:59.084Z,23.00
2023-01-06T10:33:59.089Z,24.50
2023-01-06T10:34:59.055Z,24.20
2023-01-06T10:35:59.044Z,24.40
2023-01-06T10:36:59.059Z,27.60
2023-01-06T10:37:59.024Z,23.30
2023-01-06T10:38:59.023Z,24.30
2023-01-06T10:39:59.019Z,23.90
2023-01-06T10:40:59.003Z,23.70
2023-01-06T10:41:58.975Z,23.30
2023-01-06T10:42:58.972Z,23.90
2023-01-06T10:43:58.958Z,23.20
2023-01-06T10:44:58.951Z,24.20
2023-01-06T10:45:58.900Z,22.70
2023-01-06T10:46:58.909Z,23.30
2023-01-06T10:47:58.908Z,23.30
2023-01-06T10:48:58.872Z,23.60
2023-01-06T10:49:58.877Z,22.80
2023-01-06T10:50:58.865Z,23.00
2023-01-06T10:51:58.831Z,23.20
2023-01-06T10:52:58.871Z,23.50
2023-01-06T10:53:58.820Z,23.30
2023-01-06T10:54:58.806Z,23.20
2023-01-06T10:55:58.803Z,24.30
2023-01-06T10:56:58.830Z,24.00
2023-01-06T10:57:58.755Z,23.50
2023-01-06T10:58:58.765Z,22.80
2023-01-06T10:59:58.737Z,23.80
2023-01-06T11:00:58.851Z,23.20
2023-01-06T11:01:58.756Z,22.80
2023-01-06T11:03:14.409Z,23.00
2023-01-06T11:03:59.684Z,23.50
2023-01-06T11:04:58.667Z,23.70
2023-01-06T11:05:58.642Z,22.90
2023-01-06T11:06:58.646Z,23.40
2023-01-06T11:07:58.656Z,23.50
2023-01-06T11:08:58.625Z,23.10
2023-01-06T11:09:58.615Z,23.00
2023-01-06T11:10:58.626Z,23.40
2023-01-06T11:11:58.576Z,23.20
2023-01-06T11:12:58.567Z,23.70
2023-01-06T11:13:58.584Z,23.70
2023-01-06T11:14:58.551Z,23.80
2023-01-06T11:15:58.593Z,23.40
2023-01-06T11:16:58.558Z,23.40
2023-01-06T11:17:58.484Z,23.50
2023-01-06T11:18:58.506Z,24.40
2023-01-06T11:19:58.487Z,23.30
2023-01-06T11:20:58.508Z,23.30
2023-01-06T11:21:58.445Z,22.70
2023-01-06T11:22:58.434Z,23.20
2023-01-06T11:23:58.427Z,23.40
2023-01-06T11:24:58.429Z,24.00
2023-01-06T11:25:58.397Z,23.10
2023-01-06T11:26:58.401Z,23.90
2023-01-06T11:27:58.367Z,22.60
2023-01-06T11:28:58.356Z,22.50
2023-01-06T11:29:58.337Z,22.50
2023-01-06T11:30:58.408Z,22.90
2023-01-06T11:31:58.326Z,22.80
2023-01-06T11:32:58.306Z,22.60
2023-01-06T11:33:58.290Z,23.20
2023-01-06T11:34:58.352Z,23.00
2023-01-06T11:35:58.269Z,22.40
2023-01-06T11:36:58.293Z,22.70
2023-01-06T11:37:58.237Z,22.60
2023-01-06T11:38:58.229Z,22.60
2023-01-06T11:40:05.071Z,23.20
2023-01-06T11:40:59.265Z,22.60
2023-01-06T11:41:58.184Z,23.20
2023-01-06T11:42:58.203Z,23.40
2023-01-06T11:43:58.159Z,22.90
2023-01-06T11:44:58.143Z,23.60
2023-01-06T11:45:58.193Z,22.60
2023-01-06T11:46:58.130Z,22.60
2023-01-06T11:47:58.116Z,22.50
2023-01-06T11:48:58.113Z,22.90
2023-01-06T11:49:58.088Z,23.00
2023-01-06T11:50:58.089Z,23.00
2023-01-06T11:51:58.048Z,22.60
2023-01-06T11:52:58.060Z,22.40
2023-01-06T11:53:58.027Z,22.60
2023-01-06T11:54:58.041Z,22.60
2023-01-06T11:55:58.002Z,22.70
2023-01-06T11:56:58.007Z,23.10
2023-01-06T11:57:57.991Z,22.20
2023-01-06T11:58:57.966Z,22.50
2023-01-06T11:59:57.958Z,22.40
2023-01-06T12:00:57.956Z,22.40
2023-01-06T12:01:58.070Z,22.70
2023-01-06T12:02:57.981Z,23.40
2023-01-06T12:03:57.894Z,22.60
2023-01-06T12:04:57.914Z,22.80
2023-01-06T12:05:57.896Z,22.70
2023-01-06T12:06:57.875Z,22.90
2023-01-06T12:07:57.848Z,22.10
2023-01-06T12:08:57.841Z,22.40
2023-01-06T12:09:57.816Z,23.00
2023-01-06T12:10:57.834Z,21.90
2023-01-06T12:11:57.825Z,22.20
2023-01-06T12:12:57.813Z,22.80
2023-01-06T12:14:10.932Z,21.80
2023-01-06T12:14:58.757Z,22.60
2023-01-06T12:15:57.752Z,23.10
2023-01-06T12:16:57.809Z,21.70
2023-01-06T12:17:57.716Z,21.90
2023-01-06T12:18:57.731Z,21.60
2023-01-06T12:19:57.700Z,21.90
2023-01-06T12:20:57.702Z,22.20
2023-01-06T12:21:57.686Z,22.10
2023-01-06T12:22:57.682Z,22.20
2023-01-06T12:23:57.634Z,22.20
2023-01-06T12:24:57.629Z,22.30
2023-01-06T12:25:57.633Z,22.50
2023-01-06T12:26:57.615Z,21.80
2023-01-06T12:27:57.609Z,22.50
2023-01-06T12:28:57.571Z,21.30
2023-01-06T12:29:57.586Z,23.20
2023-01-06T12:30:57.683Z,22.50
2023-01-06T12:31:57.521Z,22.60
2023-01-06T12:32:57.525Z,22.20
2023-01-06T12:33:57.520Z,23.20
2023-01-06T12:34:57.490Z,22.70
2023-01-06T12:35:57.500Z,22.90
2023-01-06T12:36:57.472Z,22.80
2023-01-06T12:37:57.458Z,22.00
2023-01-06T12:38:57.444Z,22.60
2023-01-06T12:39:57.442Z,22.30
2023-01-06T12:40:57.438Z,22.90
2023-01-06T12:41:57.407Z,23.20
2023-01-06T12:42:57.385Z,22.90
2023-01-06T12:43:57.412Z,22.70
2023-01-06T12:44:57.376Z,22.40
2023-01-06T12:45:58.248Z,22.20
2023-01-06T12:46:57.348Z,22.50
2023-01-06T12:47:57.432Z,22.80
2023-01-06T12:48:57.319Z,24.10
2023-01-06T12:49:58.388Z,22.50
2023-01-06T12:50:57.300Z,22.40
2023-01-06T12:51:57.700Z,22.10